sensor_id;sensor_type;location;lat;lon;timestamp;P1;durP1;ratioP1;P2;durP2;ratioP2
16928;SDS011;8581;47.334;11.190;2023-04-24T00:00:55;0.40;;;0.10;;
16928;SDS011;8581;47.334;11.190;2023-04-24T00:03:28;0.20;;;0.20;;
16928;SDS011;8581;47.334;11.190;2023-04-24T00:06:00;0.20;;;0.20;;
16928;SDS011;8581;47.334;11.190;2023-04-24T00:08:32;0.93;;;0.17;;
16928;SDS011;8581;47.334;11.190;2023-04-24T00:11:03;0.17;;;0.17;;
16928;SDS011;8581;47.334;11.190;2023-04-24T00:13:35;0.03;;;0.03;;
16928;SDS011;8581;47.334;11.190;2023-04-24T00:16:06;0.10;;;0.10;;
16928;SDS011;8581;47.334;11.190;2023-04-24T00:18:38;0.10;;;0.10;;
16928;SDS011;8581;47.334;11.190;2023-04-24T00:21:10;0.57;;;0.30;;
16928;SDS011;8581;47.334;11.190;2023-04-24T00:23:41;1.40;;;0.30;;
16928;SDS011;8581;47.334;11.190;2023-04-24T00:26:13;0.20;;;0.20;;
16928;SDS011;8581;47.334;11.190;2023-04-24T00:28:44;1.27;;;0.20;;
16928;SDS011;8581;47.334;11.190;2023-04-24T00:31:16;0.30;;;0.30;;
16928;SDS011;8581;47.334;11.190;2023-04-24T00:33:48;0.80;;;0.20;;
16928;SDS011;8581;47.334;11.190;2023-04-24T00:36:19;0.30;;;0.30;;
16928;SDS011;8581;47.334;11.190;2023-04-24T00:38:51;0.40;;;0.30;;
16928;SDS011;8581;47.334;11.190;2023-04-24T00:41:22;0.47;;;0.20;;
16928;SDS011;8581;47.334;11.190;2023-04-24T00:43:54;0.87;;;0.30;;
16928;SDS011;8581;47.334;11.190;2023-04-24T00:46:26;0.93;;;0.23;;
16928;SDS011;8581;47.334;11.190;2023-04-24T00:48:57;0.83;;;0.20;;
16928;SDS011;8581;47.334;11.190;2023-04-24T00:51:29;0.53;;;0.20;;
16928;SDS011;8581;47.334;11.190;2023-04-24T00:54:00;1.07;;;0.30;;
16928;SDS011;8581;47.334;11.190;2023-04-24T00:56:32;0.63;;;0.20;;
16928;SDS011;8581;47.334;11.190;2023-04-24T00:59:03;0.83;;;0.30;;
16928;SDS011;8581;47.334;11.190;2023-04-24T01:01:35;0.20;;;0.20;;
16928;SDS011;8581;47.334;11.190;2023-04-24T01:04:07;0.00;;;0.00;;
16928;SDS011;8581;47.334;11.190;2023-04-24T01:06:39;0.27;;;0.20;;
16928;SDS011;8581;47.334;11.190;2023-04-24T01:09:10;0.37;;;0.10;;
16928;SDS011;8581;47.334;11.190;2023-04-24T01:11:42;0.63;;;0.20;;
16928;SDS011;8581;47.334;11.190;2023-04-24T01:14:13;0.20;;;0.13;;
16928;SDS011;8581;47.334;11.190;2023-04-24T01:16:45;3.33;;;0.67;;
16928;SDS011;8581;47.334;11.190;2023-04-24T01:19:16;1.57;;;0.50;;
16928;SDS011;8581;47.334;11.190;2023-04-24T01:21:48;0.80;;;0.70;;
16928;SDS011;8581;47.334;11.190;2023-04-24T01:24:20;1.43;;;0.50;;
16928;SDS011;8581;47.334;11.190;2023-04-24T01:26:51;0.30;;;0.30;;
16928;SDS011;8581;47.334;11.190;2023-04-24T01:29:23;2.60;;;2.40;;
16928;SDS011;8581;47.334;11.190;2023-04-24T01:31:54;1.60;;;1.40;;
16928;SDS011;8581;47.334;11.190;2023-04-24T01:34:26;0.30;;;0.30;;
16928;SDS011;8581;47.334;11.190;2023-04-24T01:36:57;0.40;;;0.40;;
16928;SDS011;8581;47.334;11.190;2023-04-24T01:39:29;0.37;;;0.37;;
16928;SDS011;8581;47.334;11.190;2023-04-24T01:42:01;0.10;;;0.10;;
16928;SDS011;8581;47.334;11.190;2023-04-24T01:44:33;0.20;;;0.20;;
16928;SDS011;8581;47.334;11.190;2023-04-24T01:47:04;0.77;;;0.27;;
16928;SDS011;8581;47.334;11.190;2023-04-24T01:49:37;0.00;;;0.00;;
16928;SDS011;8581;47.334;11.190;2023-04-24T01:52:07;0.10;;;0.10;;
16928;SDS011;8581;47.334;11.190;2023-04-24T01:54:39;0.10;;;0.10;;
16928;SDS011;8581;47.334;11.190;2023-04-24T01:57:10;0.20;;;0.10;;
16928;SDS011;8581;47.334;11.190;2023-04-24T01:59:42;0.20;;;0.20;;
16928;SDS011;8581;47.334;11.190;2023-04-24T02:02:14;1.77;;;0.20;;
16928;SDS011;8581;47.334;11.190;2023-04-24T02:04:45;0.67;;;0.20;;
16928;SDS011;8581;47.334;11.190;2023-04-24T02:07:17;0.00;;;0.00;;
16928;SDS011;8581;47.334;11.190;2023-04-24T02:09:48;1.17;;;0.30;;
16928;SDS011;8581;47.334;11.190;2023-04-24T02:12:20;0.30;;;0.20;;
16928;SDS011;8581;47.334;11.190;2023-04-24T02:14:52;1.17;;;0.30;;
16928;SDS011;8581;47.334;11.190;2023-04-24T02:17:23;0.23;;;0.13;;
16928;SDS011;8581;47.334;11.190;2023-04-24T02:19:55;0.50;;;0.00;;
16928;SDS011;8581;47.334;11.190;2023-04-24T02:22:26;0.73;;;0.30;;
16928;SDS011;8581;47.334;11.190;2023-04-24T02:24:58;0.10;;;0.10;;
16928;SDS011;8581;47.334;11.190;2023-04-24T02:27:30;0.13;;;0.13;;
16928;SDS011;8581;47.334;11.190;2023-04-24T02:30:01;0.17;;;0.17;;
16928;SDS011;8581;47.334;11.190;2023-04-24T02:32:33;0.20;;;0.03;;
16928;SDS011;8581;47.334;11.190;2023-04-24T02:35:05;0.07;;;0.07;;
16928;SDS011;8581;47.334;11.190;2023-04-24T02:37:37;0.27;;;0.10;;
16928;SDS011;8581;47.334;11.190;2023-04-24T02:40:09;0.00;;;0.00;;
16928;SDS011;8581;47.334;11.190;2023-04-24T02:42:41;0.10;;;0.10;;
16928;SDS011;8581;47.334;11.190;2023-04-24T02:45:12;0.10;;;0.10;;
16928;SDS011;8581;47.334;11.190;2023-04-24T02:47:44;0.00;;;0.00;;
16928;SDS011;8581;47.334;11.190;2023-04-24T02:50:16;0.10;;;0.10;;
16928;SDS011;8581;47.334;11.190;2023-04-24T02:52:47;0.00;;;0.00;;
16928;SDS011;8581;47.334;11.190;2023-04-24T02:55:19;1.20;;;0.20;;
16928;SDS011;8581;47.334;11.190;2023-04-24T02:57:50;0.83;;;0.20;;
16928;SDS011;8581;47.334;11.190;2023-04-24T03:00:22;1.20;;;0.10;;
16928;SDS011;8581;47.334;11.190;2023-04-24T03:02:54;0.10;;;0.10;;
16928;SDS011;8581;47.334;11.190;2023-04-24T03:05:25;0.27;;;0.20;;
16928;SDS011;8581;47.334;11.190;2023-04-24T03:07:57;0.20;;;0.20;;
16928;SDS011;8581;47.334;11.190;2023-04-24T03:10:29;0.20;;;0.20;;
16928;SDS011;8581;47.334;11.190;2023-04-24T03:13:00;0.37;;;0.20;;
16928;SDS011;8581;47.334;11.190;2023-04-24T03:15:32;0.20;;;0.20;;
16928;SDS011;8581;47.334;11.190;2023-04-24T03:18:03;1.13;;;0.37;;
16928;SDS011;8581;47.334;11.190;2023-04-24T03:20:35;0.30;;;0.20;;
16928;SDS011;8581;47.334;11.190;2023-04-24T03:23:07;0.20;;;0.20;;
16928;SDS011;8581;47.334;11.190;2023-04-24T03:25:38;0.20;;;0.20;;
16928;SDS011;8581;47.334;11.190;2023-04-24T03:28:10;0.43;;;0.30;;
16928;SDS011;8581;47.334;11.190;2023-04-24T03:30:41;1.10;;;0.57;;
16928;SDS011;8581;47.334;11.190;2023-04-24T03:33:13;0.60;;;0.10;;
16928;SDS011;8581;47.334;11.190;2023-04-24T03:35:45;0.30;;;0.20;;
16928;SDS011;8581;47.334;11.190;2023-04-24T03:38:16;0.20;;;0.20;;
16928;SDS011;8581;47.334;11.190;2023-04-24T03:40:48;0.20;;;0.13;;
16928;SDS011;8581;47.334;11.190;2023-04-24T03:43:19;0.13;;;0.10;;
16928;SDS011;8581;47.334;11.190;2023-04-24T03:45:51;1.70;;;0.10;;
16928;SDS011;8581;47.334;11.190;2023-04-24T03:48:22;0.00;;;0.00;;
16928;SDS011;8581;47.334;11.190;2023-04-24T03:50:54;0.10;;;0.10;;
16928;SDS011;8581;47.334;11.190;2023-04-24T03:53:26;0.20;;;0.20;;
16928;SDS011;8581;47.334;11.190;2023-04-24T03:55:57;0.40;;;0.30;;
16928;SDS011;8581;47.334;11.190;2023-04-24T03:58:29;0.20;;;0.10;;
16928;SDS011;8581;47.334;11.190;2023-04-24T04:01:00;0.10;;;0.10;;
16928;SDS011;8581;47.334;11.190;2023-04-24T04:03:32;0.57;;;0.10;;
16928;SDS011;8581;47.334;11.190;2023-04-24T04:06:04;0.10;;;0.10;;
16928;SDS011;8581;47.334;11.190;2023-04-24T04:08:35;0.33;;;0.20;;
16928;SDS011;8581;47.334;11.190;2023-04-24T04:11:07;0.10;;;0.10;;
16928;SDS011;8581;47.334;11.190;2023-04-24T04:13:39;0.20;;;0.17;;
16928;SDS011;8581;47.334;11.190;2023-04-24T04:16:10;0.10;;;0.10;;
16928;SDS011;8581;47.334;11.190;2023-04-24T04:18:42;0.40;;;0.20;;
16928;SDS011;8581;47.334;11.190;2023-04-24T04:21:13;1.80;;;1.67;;
16928;SDS011;8581;47.334;11.190;2023-04-24T04:23:45;0.17;;;0.17;;
16928;SDS011;8581;47.334;11.190;2023-04-24T04:26:17;0.40;;;0.17;;
16928;SDS011;8581;47.334;11.190;2023-04-24T04:28:48;0.20;;;0.10;;
16928;SDS011;8581;47.334;11.190;2023-04-24T04:31:20;0.20;;;0.20;;
16928;SDS011;8581;47.334;11.190;2023-04-24T04:33:51;1.20;;;0.17;;
16928;SDS011;8581;47.334;11.190;2023-04-24T04:36:23;0.30;;;0.10;;
16928;SDS011;8581;47.334;11.190;2023-04-24T04:38:55;0.20;;;0.20;;
16928;SDS011;8581;47.334;11.190;2023-04-24T04:41:26;0.50;;;0.37;;
16928;SDS011;8581;47.334;11.190;2023-04-24T04:43:58;0.13;;;0.13;;
16928;SDS011;8581;47.334;11.190;2023-04-24T04:46:30;0.20;;;0.20;;
16928;SDS011;8581;47.334;11.190;2023-04-24T04:49:01;0.47;;;0.30;;
16928;SDS011;8581;47.334;11.190;2023-04-24T04:51:33;0.30;;;0.20;;
16928;SDS011;8581;47.334;11.190;2023-04-24T04:54:04;0.20;;;0.20;;
16928;SDS011;8581;47.334;11.190;2023-04-24T04:56:36;0.40;;;0.30;;
16928;SDS011;8581;47.334;11.190;2023-04-24T04:59:07;0.63;;;0.63;;
16928;SDS011;8581;47.334;11.190;2023-04-24T05:01:39;1.50;;;1.40;;
16928;SDS011;8581;47.334;11.190;2023-04-24T05:04:11;0.60;;;0.30;;
16928;SDS011;8581;47.334;11.190;2023-04-24T05:06:42;0.20;;;0.20;;
16928;SDS011;8581;47.334;11.190;2023-04-24T05:09:14;0.10;;;0.10;;
16928;SDS011;8581;47.334;11.190;2023-04-24T05:11:45;0.80;;;0.77;;
16928;SDS011;8581;47.334;11.190;2023-04-24T05:14:17;11.70;;;8.80;;
16928;SDS011;8581;47.334;11.190;2023-04-24T05:16:49;1.43;;;0.70;;
16928;SDS011;8581;47.334;11.190;2023-04-24T05:19:20;0.20;;;0.20;;
16928;SDS011;8581;47.334;11.190;2023-04-24T05:21:52;0.40;;;0.20;;
16928;SDS011;8581;47.334;11.190;2023-04-24T05:24:23;0.40;;;0.30;;
16928;SDS011;8581;47.334;11.190;2023-04-24T05:26:55;0.77;;;0.10;;
16928;SDS011;8581;47.334;11.190;2023-04-24T05:29:27;0.00;;;0.00;;
16928;SDS011;8581;47.334;11.190;2023-04-24T05:31:59;0.10;;;0.10;;
16928;SDS011;8581;47.334;11.190;2023-04-24T05:34:30;0.20;;;0.20;;
16928;SDS011;8581;47.334;11.190;2023-04-24T05:37:02;0.27;;;0.10;;
16928;SDS011;8581;47.334;11.190;2023-04-24T05:39:33;0.00;;;0.00;;
16928;SDS011;8581;47.334;11.190;2023-04-24T05:42:05;0.10;;;0.10;;
16928;SDS011;8581;47.334;11.190;2023-04-24T05:44:36;0.20;;;0.20;;
16928;SDS011;8581;47.334;11.190;2023-04-24T05:47:08;0.13;;;0.13;;
16928;SDS011;8581;47.334;11.190;2023-04-24T05:49:40;0.20;;;0.20;;
16928;SDS011;8581;47.334;11.190;2023-04-24T05:52:11;0.10;;;0.10;;
16928;SDS011;8581;47.334;11.190;2023-04-24T05:54:43;0.30;;;0.30;;
16928;SDS011;8581;47.334;11.190;2023-04-24T05:57:14;0.30;;;0.30;;
16928;SDS011;8581;47.334;11.190;2023-04-24T05:59:46;1.13;;;0.30;;
16928;SDS011;8581;47.334;11.190;2023-04-24T06:02:17;0.40;;;0.40;;
16928;SDS011;8581;47.334;11.190;2023-04-24T06:04:49;0.30;;;0.30;;
16928;SDS011;8581;47.334;11.190;2023-04-24T06:07:21;0.40;;;0.40;;
16928;SDS011;8581;47.334;11.190;2023-04-24T06:09:53;0.30;;;0.30;;
16928;SDS011;8581;47.334;11.190;2023-04-24T06:12:25;0.40;;;0.40;;
16928;SDS011;8581;47.334;11.190;2023-04-24T06:14:57;0.20;;;0.20;;
16928;SDS011;8581;47.334;11.190;2023-04-24T06:17:28;0.20;;;0.20;;
16928;SDS011;8581;47.334;11.190;2023-04-24T06:20:00;0.37;;;0.20;;
16928;SDS011;8581;47.334;11.190;2023-04-24T06:22:31;0.20;;;0.20;;
16928;SDS011;8581;47.334;11.190;2023-04-24T06:25:03;1.30;;;0.30;;
16928;SDS011;8581;47.334;11.190;2023-04-24T06:27:36;0.37;;;0.30;;
16928;SDS011;8581;47.334;11.190;2023-04-24T06:30:08;0.30;;;0.30;;
16928;SDS011;8581;47.334;11.190;2023-04-24T06:32:40;0.60;;;0.33;;
16928;SDS011;8581;47.334;11.190;2023-04-24T06:35:12;0.50;;;0.50;;
16928;SDS011;8581;47.334;11.190;2023-04-24T06:37:43;0.50;;;0.43;;
16928;SDS011;8581;47.334;11.190;2023-04-24T06:40:15;0.50;;;0.50;;
16928;SDS011;8581;47.334;11.190;2023-04-24T06:42:46;0.60;;;0.57;;
16928;SDS011;8581;47.334;11.190;2023-04-24T06:45:18;0.50;;;0.50;;
16928;SDS011;8581;47.334;11.190;2023-04-24T06:47:50;0.30;;;0.30;;
16928;SDS011;8581;47.334;11.190;2023-04-24T06:50:22;0.47;;;0.30;;
16928;SDS011;8581;47.334;11.190;2023-04-24T06:52:53;0.20;;;0.20;;
16928;SDS011;8581;47.334;11.190;2023-04-24T06:55:25;0.20;;;0.20;;
16928;SDS011;8581;47.334;11.190;2023-04-24T06:57:56;0.60;;;0.17;;
16928;SDS011;8581;47.334;11.190;2023-04-24T07:00:28;0.33;;;0.00;;
16928;SDS011;8581;47.334;11.190;2023-04-24T07:03:00;2.10;;;0.20;;
16928;SDS011;8581;47.334;11.190;2023-04-24T07:05:31;0.20;;;0.10;;
16928;SDS011;8581;47.334;11.190;2023-04-24T07:08:03;0.20;;;0.20;;
16928;SDS011;8581;47.334;11.190;2023-04-24T07:10:34;1.50;;;0.20;;
16928;SDS011;8581;47.334;11.190;2023-04-24T07:13:06;0.23;;;0.10;;
16928;SDS011;8581;47.334;11.190;2023-04-24T07:15:38;0.60;;;0.30;;
16928;SDS011;8581;47.334;11.190;2023-04-24T07:18:10;0.20;;;0.20;;
16928;SDS011;8581;47.334;11.190;2023-04-24T07:20:42;0.50;;;0.30;;
16928;SDS011;8581;47.334;11.190;2023-04-24T07:23:13;0.83;;;0.80;;
16928;SDS011;8581;47.334;11.190;2023-04-24T07:25:45;1.10;;;1.00;;
16928;SDS011;8581;47.334;11.190;2023-04-24T07:28:16;0.97;;;0.80;;
16928;SDS011;8581;47.334;11.190;2023-04-24T07:30:48;2.37;;;0.50;;
16928;SDS011;8581;47.334;11.190;2023-04-24T07:33:20;0.30;;;0.30;;
16928;SDS011;8581;47.334;11.190;2023-04-24T07:35:51;0.47;;;0.30;;
16928;SDS011;8581;47.334;11.190;2023-04-24T07:38:23;0.87;;;0.20;;
16928;SDS011;8581;47.334;11.190;2023-04-24T07:40:54;0.57;;;0.20;;
16928;SDS011;8581;47.334;11.190;2023-04-24T07:43:26;0.10;;;0.10;;
16928;SDS011;8581;47.334;11.190;2023-04-24T07:45:58;0.30;;;0.30;;
16928;SDS011;8581;47.334;11.190;2023-04-24T07:48:29;0.30;;;0.30;;
16928;SDS011;8581;47.334;11.190;2023-04-24T07:51:02;0.20;;;0.20;;
16928;SDS011;8581;47.334;11.190;2023-04-24T07:53:33;0.30;;;0.30;;
16928;SDS011;8581;47.334;11.190;2023-04-24T07:56:05;0.77;;;0.60;;
16928;SDS011;8581;47.334;11.190;2023-04-24T07:58:37;0.20;;;0.20;;
16928;SDS011;8581;47.334;11.190;2023-04-24T08:01:08;0.83;;;0.13;;
16928;SDS011;8581;47.334;11.190;2023-04-24T08:03:40;0.10;;;0.10;;
16928;SDS011;8581;47.334;11.190;2023-04-24T08:06:12;0.20;;;0.20;;
16928;SDS011;8581;47.334;11.190;2023-04-24T08:08:43;0.20;;;0.20;;
16928;SDS011;8581;47.334;11.190;2023-04-24T08:11:15;0.30;;;0.17;;
16928;SDS011;8581;47.334;11.190;2023-04-24T08:13:46;0.13;;;0.13;;
16928;SDS011;8581;47.334;11.190;2023-04-24T08:16:18;0.10;;;0.10;;
16928;SDS011;8581;47.334;11.190;2023-04-24T08:18:50;0.30;;;0.30;;
16928;SDS011;8581;47.334;11.190;2023-04-24T08:21:22;0.53;;;0.20;;
16928;SDS011;8581;47.334;11.190;2023-04-24T08:23:54;0.10;;;0.10;;
16928;SDS011;8581;47.334;11.190;2023-04-24T08:26:25;0.10;;;0.10;;
16928;SDS011;8581;47.334;11.190;2023-04-24T08:28:57;0.10;;;0.10;;
16928;SDS011;8581;47.334;11.190;2023-04-24T08:31:28;0.20;;;0.20;;
16928;SDS011;8581;47.334;11.190;2023-04-24T08:34:00;0.13;;;0.13;;
16928;SDS011;8581;47.334;11.190;2023-04-24T08:36:32;0.40;;;0.30;;
16928;SDS011;8581;47.334;11.190;2023-04-24T08:39:03;0.23;;;0.23;;
16928;SDS011;8581;47.334;11.190;2023-04-24T08:41:35;0.30;;;0.30;;
16928;SDS011;8581;47.334;11.190;2023-04-24T08:44:06;0.20;;;0.20;;
16928;SDS011;8581;47.334;11.190;2023-04-24T08:46:39;0.50;;;0.50;;
16928;SDS011;8581;47.334;11.190;2023-04-24T08:49:10;0.20;;;0.20;;
16928;SDS011;8581;47.334;11.190;2023-04-24T08:51:41;0.20;;;0.20;;
16928;SDS011;8581;47.334;11.190;2023-04-24T08:54:13;1.57;;;0.27;;
16928;SDS011;8581;47.334;11.190;2023-04-24T08:56:45;0.27;;;0.27;;
16928;SDS011;8581;47.334;11.190;2023-04-24T08:59:16;1.03;;;0.30;;
16928;SDS011;8581;47.334;11.190;2023-04-24T09:01:48;0.43;;;0.30;;
16928;SDS011;8581;47.334;11.190;2023-04-24T09:04:19;0.20;;;0.20;;
16928;SDS011;8581;47.334;11.190;2023-04-24T09:06:55;0.10;;;0.10;;
16928;SDS011;8581;47.334;11.190;2023-04-24T09:09:25;0.33;;;0.33;;
16928;SDS011;8581;47.334;11.190;2023-04-24T09:11:57;0.67;;;0.50;;
16928;SDS011;8581;47.334;11.190;2023-04-24T09:14:29;0.20;;;0.20;;
16928;SDS011;8581;47.334;11.190;2023-04-24T09:17:00;0.30;;;0.30;;
16928;SDS011;8581;47.334;11.190;2023-04-24T09:19:32;0.80;;;0.63;;
16928;SDS011;8581;47.334;11.190;2023-04-24T09:22:05;0.30;;;0.30;;
16928;SDS011;8581;47.334;11.190;2023-04-24T09:24:36;0.50;;;0.30;;
16928;SDS011;8581;47.334;11.190;2023-04-24T09:27:07;0.30;;;0.30;;
16928;SDS011;8581;47.334;11.190;2023-04-24T09:29:39;2.83;;;0.40;;
16928;SDS011;8581;47.334;11.190;2023-04-24T09:34:49;0.30;;;0.30;;
16928;SDS011;8581;47.334;11.190;2023-04-24T09:37:27;0.27;;;0.27;;
16928;SDS011;8581;47.334;11.190;2023-04-24T09:42:39;0.30;;;0.20;;
16928;SDS011;8581;47.334;11.190;2023-04-24T09:45:10;1.07;;;0.30;;
16928;SDS011;8581;47.334;11.190;2023-04-24T09:47:42;0.50;;;0.50;;
16928;SDS011;8581;47.334;11.190;2023-04-24T09:50:14;0.30;;;0.30;;
16928;SDS011;8581;47.334;11.190;2023-04-24T09:52:55;0.23;;;0.20;;
16928;SDS011;8581;47.334;11.190;2023-04-24T09:55:19;0.27;;;0.27;;
16928;SDS011;8581;47.334;11.190;2023-04-24T09:57:51;1.60;;;0.50;;
16928;SDS011;8581;47.334;11.190;2023-04-24T10:00:23;0.33;;;0.33;;
16928;SDS011;8581;47.334;11.190;2023-04-24T10:02:56;2.10;;;0.40;;
16928;SDS011;8581;47.334;11.190;2023-04-24T10:05:31;0.10;;;0.10;;
16928;SDS011;8581;47.334;11.190;2023-04-24T10:08:04;0.40;;;0.40;;
16928;SDS011;8581;47.334;11.190;2023-04-24T10:10:38;0.73;;;0.20;;
16928;SDS011;8581;47.334;11.190;2023-04-24T10:13:09;0.20;;;0.20;;
16928;SDS011;8581;47.334;11.190;2023-04-24T10:15:41;0.10;;;0.10;;
16928;SDS011;8581;47.334;11.190;2023-04-24T10:18:12;5.43;;;0.40;;
16928;SDS011;8581;47.334;11.190;2023-04-24T10:20:44;0.30;;;0.20;;
16928;SDS011;8581;47.334;11.190;2023-04-24T10:23:16;1.80;;;0.23;;
16928;SDS011;8581;47.334;11.190;2023-04-24T10:25:47;0.40;;;0.40;;
16928;SDS011;8581;47.334;11.190;2023-04-24T10:28:19;0.30;;;0.30;;
16928;SDS011;8581;47.334;11.190;2023-04-24T10:30:50;1.83;;;0.20;;
16928;SDS011;8581;47.334;11.190;2023-04-24T10:33:22;2.12;;;0.30;;
16928;SDS011;8581;47.334;11.190;2023-04-24T10:35:54;0.82;;;0.40;;
16928;SDS011;8581;47.334;11.190;2023-04-24T10:38:25;0.30;;;0.30;;
16928;SDS011;8581;47.334;11.190;2023-04-24T10:41:02;0.20;;;0.20;;
16928;SDS011;8581;47.334;11.190;2023-04-24T10:43:29;0.20;;;0.20;;
16928;SDS011;8581;47.334;11.190;2023-04-24T10:46:01;0.60;;;0.40;;
16928;SDS011;8581;47.334;11.190;2023-04-24T10:48:32;1.70;;;0.50;;
16928;SDS011;8581;47.334;11.190;2023-04-24T10:51:03;0.40;;;0.40;;
16928;SDS011;8581;47.334;11.190;2023-04-24T10:53:35;0.90;;;0.20;;
16928;SDS011;8581;47.334;11.190;2023-04-24T10:56:08;0.30;;;0.30;;
16928;SDS011;8581;47.334;11.190;2023-04-24T10:58:40;0.30;;;0.30;;
16928;SDS011;8581;47.334;11.190;2023-04-24T11:03:56;0.30;;;0.30;;
16928;SDS011;8581;47.334;11.190;2023-04-24T11:06:29;1.10;;;0.20;;
16928;SDS011;8581;47.334;11.190;2023-04-24T11:09:05;2.63;;;0.70;;
16928;SDS011;8581;47.334;11.190;2023-04-24T11:11:36;5.30;;;0.90;;
16928;SDS011;8581;47.334;11.190;2023-04-24T11:14:08;0.40;;;0.30;;
16928;SDS011;8581;47.334;11.190;2023-04-24T11:16:43;0.40;;;0.20;;
16928;SDS011;8581;47.334;11.190;2023-04-24T11:19:24;0.57;;;0.50;;
16928;SDS011;8581;47.334;11.190;2023-04-24T11:21:59;0.70;;;0.40;;
16928;SDS011;8581;47.334;11.190;2023-04-24T11:24:39;0.30;;;0.30;;
16928;SDS011;8581;47.334;11.190;2023-04-24T11:27:13;0.30;;;0.30;;
16928;SDS011;8581;47.334;11.190;2023-04-24T11:29:48;13.90;;;1.47;;
16928;SDS011;8581;47.334;11.190;2023-04-24T11:32:22;20.20;;;3.87;;
16928;SDS011;8581;47.334;11.190;2023-04-24T11:34:57;13.50;;;1.90;;
16928;SDS011;8581;47.334;11.190;2023-04-24T11:37:30;13.03;;;1.73;;
16928;SDS011;8581;47.334;11.190;2023-04-24T11:39:59;0.77;;;0.30;;
16928;SDS011;8581;47.334;11.190;2023-04-24T11:42:34;0.70;;;0.30;;
16928;SDS011;8581;47.334;11.190;2023-04-24T11:45:16;0.30;;;0.30;;
16928;SDS011;8581;47.334;11.190;2023-04-24T11:47:45;0.20;;;0.20;;
16928;SDS011;8581;47.334;11.190;2023-04-24T11:50:18;1.80;;;0.30;;
16928;SDS011;8581;47.334;11.190;2023-04-24T11:52:49;0.40;;;0.40;;
16928;SDS011;8581;47.334;11.190;2023-04-24T11:55:24;0.30;;;0.30;;
16928;SDS011;8581;47.334;11.190;2023-04-24T11:57:56;0.30;;;0.30;;
16928;SDS011;8581;47.334;11.190;2023-04-24T12:00:28;0.40;;;0.20;;
16928;SDS011;8581;47.334;11.190;2023-04-24T12:03:04;0.20;;;0.20;;
16928;SDS011;8581;47.334;11.190;2023-04-24T12:05:35;0.10;;;0.10;;
16928;SDS011;8581;47.334;11.190;2023-04-24T12:08:07;0.20;;;0.20;;
16928;SDS011;8581;47.334;11.190;2023-04-24T12:10:39;0.30;;;0.30;;
16928;SDS011;8581;47.334;11.190;2023-04-24T12:13:10;0.30;;;0.30;;
16928;SDS011;8581;47.334;11.190;2023-04-24T12:15:42;0.87;;;0.23;;
16928;SDS011;8581;47.334;11.190;2023-04-24T12:18:14;0.20;;;0.20;;
16928;SDS011;8581;47.334;11.190;2023-04-24T12:20:45;0.30;;;0.30;;
16928;SDS011;8581;47.334;11.190;2023-04-24T12:23:32;0.40;;;0.30;;
16928;SDS011;8581;47.334;11.190;2023-04-24T12:25:50;0.23;;;0.23;;
16928;SDS011;8581;47.334;11.190;2023-04-24T12:28:20;0.30;;;0.30;;
16928;SDS011;8581;47.334;11.190;2023-04-24T12:30:51;0.43;;;0.43;;
16928;SDS011;8581;47.334;11.190;2023-04-24T12:33:23;0.40;;;0.40;;
16928;SDS011;8581;47.334;11.190;2023-04-24T12:35:55;0.70;;;0.40;;
16928;SDS011;8581;47.334;11.190;2023-04-24T12:38:27;0.20;;;0.20;;
16928;SDS011;8581;47.334;11.190;2023-04-24T12:41:01;0.83;;;0.33;;
16928;SDS011;8581;47.334;11.190;2023-04-24T12:43:33;0.33;;;0.30;;
16928;SDS011;8581;47.334;11.190;2023-04-24T12:46:05;0.20;;;0.20;;
16928;SDS011;8581;47.334;11.190;2023-04-24T12:48:36;0.50;;;0.30;;
16928;SDS011;8581;47.334;11.190;2023-04-24T12:51:08;0.20;;;0.20;;
16928;SDS011;8581;47.334;11.190;2023-04-24T12:53:40;0.25;;;0.25;;
16928;SDS011;8581;47.334;11.190;2023-04-24T12:56:11;0.20;;;0.20;;
16928;SDS011;8581;47.334;11.190;2023-04-24T12:58:43;0.40;;;0.30;;
16928;SDS011;8581;47.334;11.190;2023-04-24T13:01:14;0.30;;;0.30;;
16928;SDS011;8581;47.334;11.190;2023-04-24T13:03:46;1.00;;;0.30;;
16928;SDS011;8581;47.334;11.190;2023-04-24T13:06:18;0.40;;;0.30;;
16928;SDS011;8581;47.334;11.190;2023-04-24T13:08:49;0.62;;;0.30;;
16928;SDS011;8581;47.334;11.190;2023-04-24T13:11:21;0.23;;;0.23;;
16928;SDS011;8581;47.334;11.190;2023-04-24T13:13:54;0.30;;;0.20;;
16928;SDS011;8581;47.334;11.190;2023-04-24T13:16:24;0.30;;;0.30;;
16928;SDS011;8581;47.334;11.190;2023-04-24T13:18:56;0.37;;;0.37;;
16928;SDS011;8581;47.334;11.190;2023-04-24T13:21:27;0.28;;;0.28;;
16928;SDS011;8581;47.334;11.190;2023-04-24T13:23:59;0.30;;;0.30;;
16928;SDS011;8581;47.334;11.190;2023-04-24T13:26:30;0.40;;;0.40;;
16928;SDS011;8581;47.334;11.190;2023-04-24T13:29:02;0.30;;;0.30;;
16928;SDS011;8581;47.334;11.190;2023-04-24T13:31:34;0.20;;;0.20;;
16928;SDS011;8581;47.334;11.190;2023-04-24T13:34:05;0.30;;;0.30;;
16928;SDS011;8581;47.334;11.190;2023-04-24T13:36:37;0.40;;;0.35;;
16928;SDS011;8581;47.334;11.190;2023-04-24T13:39:09;0.33;;;0.33;;
16928;SDS011;8581;47.334;11.190;2023-04-24T13:41:40;0.25;;;0.25;;
16928;SDS011;8581;47.334;11.190;2023-04-24T13:44:12;0.50;;;0.50;;
16928;SDS011;8581;47.334;11.190;2023-04-24T13:46:44;0.57;;;0.50;;
16928;SDS011;8581;47.334;11.190;2023-04-24T13:49:15;2.20;;;0.53;;
16928;SDS011;8581;47.334;11.190;2023-04-24T13:51:47;0.57;;;0.50;;
16928;SDS011;8581;47.334;11.190;2023-04-24T13:54:18;0.77;;;0.40;;
16928;SDS011;8581;47.334;11.190;2023-04-24T13:56:50;0.30;;;0.30;;
16928;SDS011;8581;47.334;11.190;2023-04-24T13:59:21;1.47;;;0.57;;
16928;SDS011;8581;47.334;11.190;2023-04-24T14:01:53;0.47;;;0.40;;
16928;SDS011;8581;47.334;11.190;2023-04-24T14:04:25;0.57;;;0.50;;
16928;SDS011;8581;47.334;11.190;2023-04-24T14:06:56;0.60;;;0.50;;
16928;SDS011;8581;47.334;11.190;2023-04-24T14:09:28;0.50;;;0.50;;
16928;SDS011;8581;47.334;11.190;2023-04-24T14:11:59;0.40;;;0.40;;
16928;SDS011;8581;47.334;11.190;2023-04-24T14:14:31;0.83;;;0.50;;
16928;SDS011;8581;47.334;11.190;2023-04-24T14:17:03;0.40;;;0.40;;
16928;SDS011;8581;47.334;11.190;2023-04-24T14:19:34;0.37;;;0.37;;
16928;SDS011;8581;47.334;11.190;2023-04-24T14:22:06;1.33;;;0.47;;
16928;SDS011;8581;47.334;11.190;2023-04-24T14:24:37;0.40;;;0.40;;
16928;SDS011;8581;47.334;11.190;2023-04-24T14:27:09;0.40;;;0.40;;
16928;SDS011;8581;47.334;11.190;2023-04-24T14:29:41;0.70;;;0.60;;
16928;SDS011;8581;47.334;11.190;2023-04-24T14:32:12;0.60;;;0.50;;
16928;SDS011;8581;47.334;11.190;2023-04-24T14:34:44;0.53;;;0.50;;
16928;SDS011;8581;47.334;11.190;2023-04-24T14:37:15;1.07;;;0.50;;
16928;SDS011;8581;47.334;11.190;2023-04-24T14:39:47;0.78;;;0.40;;
16928;SDS011;8581;47.334;11.190;2023-04-24T14:42:19;0.50;;;0.50;;
16928;SDS011;8581;47.334;11.190;2023-04-24T14:44:50;1.10;;;0.50;;
16928;SDS011;8581;47.334;11.190;2023-04-24T14:47:22;1.60;;;0.50;;
16928;SDS011;8581;47.334;11.190;2023-04-24T14:49:53;0.40;;;0.40;;
16928;SDS011;8581;47.334;11.190;2023-04-24T14:52:25;1.30;;;0.80;;
16928;SDS011;8581;47.334;11.190;2023-04-24T14:54:57;1.10;;;0.80;;
16928;SDS011;8581;47.334;11.190;2023-04-24T14:57:28;0.50;;;0.50;;
16928;SDS011;8581;47.334;11.190;2023-04-24T15:00:00;0.70;;;0.40;;
16928;SDS011;8581;47.334;11.190;2023-04-24T15:02:32;0.82;;;0.60;;
16928;SDS011;8581;47.334;11.190;2023-04-24T15:05:03;0.40;;;0.40;;
16928;SDS011;8581;47.334;11.190;2023-04-24T15:07:36;0.50;;;0.50;;
16928;SDS011;8581;47.334;11.190;2023-04-24T15:10:07;1.30;;;0.63;;
16928;SDS011;8581;47.334;11.190;2023-04-24T15:12:40;0.40;;;0.40;;
16928;SDS011;8581;47.334;11.190;2023-04-24T15:15:11;0.60;;;0.60;;
16928;SDS011;8581;47.334;11.190;2023-04-24T15:17:43;0.97;;;0.60;;
16928;SDS011;8581;47.334;11.190;2023-04-24T15:20:15;0.53;;;0.50;;
16928;SDS011;8581;47.334;11.190;2023-04-24T15:22:46;0.50;;;0.50;;